Time;durP1;ratioP1;P1;durP2;ratioP2;P2;SDS_P1;SDS_P2;PMS_P1;PMS_P2;Temp;Humidity;BMP_temperature;BMP_pressure;BME280_temperature;BME280_humidity;BME280_pressure;Samples;Min_cycle;Max_cycle;Signal;HPM_P1;HPM_P2
2023/08/11 00:02:19;;;;;;;5.88;2.80;;;;;;;;;;5150148;27;20026;-77
2023/08/11 00:04:45;;;;;;;5.07;3.15;;;;;;;;;;5151544;27;20079;-77
2023/08/11 00:07:11;;;;;;;5.28;3.03;;;;;;;;;;5150140;27;20023;-78
2023/08/11 00:09:37;;;;;;;6.63;3.28;;;;;;;;;;5151803;27;20027;-78
2023/08/11 00:12:03;;;;;;;8.05;4.05;;;;;;;;;;5150804;27;20026;-78
2023/08/11 00:14:29;;;;;;;6.75;4.45;;;;;;;;;;5150635;27;20029;-78
2023/08/11 00:16:56;;;;;;;5.72;3.67;;;;;;;;;;5151279;27;20023;-78
2023/08/11 00:19:22;;;;;;;5.05;3.15;;;;;;;;;;5152807;27;20122;-76
2023/08/11 00:21:47;;;;;;;5.30;3.40;;;;;;;;;;5150204;27;20042;-77
2023/08/11 00:24:13;;;;;;;7.30;3.00;;;;;;;;;;5150428;27;20034;-77
2023/08/11 00:26:39;;;;;;;6.00;2.85;;;;;;;;;;5150566;27;20026;-78
2023/08/11 00:29:05;;;;;;;7.93;4.10;;;;;;;;;;5150651;27;20488;-77
2023/08/11 00:31:31;;;;;;;5.18;3.05;;;;;;;;;;5150492;27;20026;-78
2023/08/11 00:33:57;;;;;;;5.95;3.80;;;;;;;;;;5150527;27;20030;-77
2023/08/11 00:36:24;;;;;;;7.40;3.78;;;;;;;;;;5150374;27;20019;-78
2023/08/11 00:38:50;;;;;;;7.63;4.40;;;;;;;;;;5150269;27;20061;-77
2023/08/11 00:41:16;;;;;;;7.95;4.40;;;;;;;;;;5149813;27;20114;-78
2023/08/11 00:43:42;;;;;;;6.40;3.20;;;;;;;;;;5149117;27;20133;-77
2023/08/11 00:46:12;;;;;;;7.68;5.20;;;;;;;;;;5150373;27;20027;-77
2023/08/11 00:48:39;;;;;;;5.40;3.60;;;;;;;;;;5149916;27;20030;-77
2023/08/11 00:51:05;;;;;;;5.93;3.97;;;;;;;;;;5150538;27;20038;-77
2023/08/11 00:53:32;;;;;;;7.28;4.72;;;;;;;;;;5149765;27;20027;-77
2023/08/11 00:55:58;;;;;;;6.35;4.30;;;;;;;;;;5150296;27;20030;-77
2023/08/11 00:58:25;;;;;;;7.63;4.55;;;;;;;;;;5150495;27;20115;-77
2023/08/11 01:00:52;;;;;;;12.02;5.10;;;;;;;;;;5150383;27;20035;-78
2023/08/11 01:03:18;;;;;;;8.23;5.60;;;;;;;;;;5149026;27;20023;-77
2023/08/11 01:05:55;;;;;;;6.10;4.10;;;;;;;;;;5151329;27;20019;-77
2023/08/11 01:08:35;;;;;;;7.35;4.75;;;;;;;;;;5151208;27;20023;-77
2023/08/11 01:11:06;;;;;;;7.07;4.00;;;;;;;;;;5150052;27;20046;-78
2023/08/11 01:13:34;;;;;;;7.82;5.15;;;;;;;;;;5149762;27;20106;-77
2023/08/11 01:16:00;;;;;;;9.05;5.47;;;;;;;;;;5148751;27;20023;-77
2023/08/11 01:18:28;;;;;;;8.07;5.22;;;;;;;;;;5149785;27;20030;-77
2023/08/11 01:20:55;;;;;;;6.70;3.45;;;;;;;;;;5149699;27;20031;-76
2023/08/11 01:23:24;;;;;;;8.95;5.43;;;;;;;;;;5149869;27;20019;-77
2023/08/11 01:25:54;;;;;;;7.65;4.85;;;;;;;;;;5149312;27;20031;-76
2023/08/11 01:28:20;;;;;;;6.90;4.03;;;;;;;;;;5150214;27;20030;-77
2023/08/11 01:30:48;;;;;;;6.13;4.00;;;;;;;;;;5150259;27;20061;-77
2023/08/11 01:33:14;;;;;;;7.95;5.45;;;;;;;;;;5148758;27;20027;-76
2023/08/11 01:35:40;;;;;;;8.63;5.80;;;;;;;;;;5149819;27;20023;-77
2023/08/11 01:38:06;;;;;;;10.88;6.68;;;;;;;;;;5149900;27;20399;-77
2023/08/11 01:40:32;;;;;;;6.75;4.68;;;;;;;;;;5148085;27;20050;-78
2023/08/11 01:43:01;;;;;;;7.50;4.53;;;;;;;;;;5149502;27;20019;-77
2023/08/11 01:45:28;;;;;;;5.47;3.83;;;;;;;;;;5149964;27;20027;-77
2023/08/11 01:47:54;;;;;;;5.55;3.67;;;;;;;;;;5150483;27;20047;-77
2023/08/11 01:50:21;;;;;;;7.50;5.28;;;;;;;;;;5151997;27;20026;-77
2023/08/11 01:52:47;;;;;;;11.25;5.70;;;;;;;;;;5153357;27;20027;-77
2023/08/11 01:55:14;;;;;;;8.07;5.85;;;;;;;;;;5154687;27;20057;-76
2023/08/11 01:57:41;;;;;;;6.85;4.38;;;;;;;;;;5153679;27;20022;-77
2023/08/11 02:00:09;;;;;;;9.02;5.28;;;;;;;;;;5153024;27;20085;-77
2023/08/11 02:02:37;;;;;;;8.38;5.78;;;;;;;;;;5152733;27;20026;-76
2023/08/11 02:05:03;;;;;;;12.63;6.55;;;;;;;;;;5152769;27;20031;-77
2023/08/11 02:07:29;;;;;;;6.78;4.82;;;;;;;;;;5153477;27;20029;-77
2023/08/11 02:09:56;;;;;;;11.70;6.30;;;;;;;;;;5153298;27;20026;-76
2023/08/11 02:12:22;;;;;;;7.88;5.75;;;;;;;;;;5153946;27;20352;-77
2023/08/11 02:14:48;;;;;;;7.07;5.05;;;;;;;;;;5152854;27;20026;-77
2023/08/11 02:17:14;;;;;;;9.07;5.95;;;;;;;;;;5152454;27;20070;-77
2023/08/11 02:19:40;;;;;;;10.05;7.18;;;;;;;;;;5154427;27;20352;-77
2023/08/11 02:22:06;;;;;;;6.95;4.22;;;;;;;;;;5153476;27;20046;-77
2023/08/11 02:24:32;;;;;;;7.28;4.43;;;;;;;;;;5152300;27;20029;-78
2023/08/11 02:26:58;;;;;;;7.97;5.05;;;;;;;;;;5152949;27;20050;-78
2023/08/11 02:29:24;;;;;;;6.35;3.72;;;;;;;;;;5152277;27;20440;-78
2023/08/11 02:31:50;;;;;;;6.30;4.50;;;;;;;;;;5152597;27;20030;-77
2023/08/11 02:34:16;;;;;;;6.70;4.13;;;;;;;;;;5152667;27;20026;-77
2023/08/11 02:36:42;;;;;;;7.65;4.20;;;;;;;;;;5152838;27;20023;-77
2023/08/11 02:39:08;;;;;;;6.68;4.22;;;;;;;;;;5152173;27;20054;-77
2023/08/11 02:41:34;;;;;;;9.35;5.90;;;;;;;;;;5155619;27;20027;-77
2023/08/11 02:44:00;;;;;;;7.00;4.80;;;;;;;;;;5155752;27;20026;-77
2023/08/11 02:46:27;;;;;;;7.53;4.07;;;;;;;;;;5152530;27;20019;-77
2023/08/11 02:48:53;;;;;;;7.63;4.97;;;;;;;;;;5151430;27;20404;-77
2023/08/11 02:51:19;;;;;;;8.88;4.60;;;;;;;;;;5152745;27;20110;-77
2023/08/11 02:53:45;;;;;;;6.35;3.65;;;;;;;;;;5152125;27;20022;-77
2023/08/11 02:56:15;;;;;;;6.28;4.00;;;;;;;;;;5152471;27;20023;-79
2023/08/11 02:58:42;;;;;;;6.87;4.40;;;;;;;;;;5153117;27;20031;-77
2023/08/11 03:01:08;;;;;;;7.55;4.68;;;;;;;;;;5152118;27;20118;-78
2023/08/11 03:03:34;;;;;;;8.35;5.25;;;;;;;;;;5152972;27;20026;-77
2023/08/11 03:06:00;;;;;;;6.30;4.00;;;;;;;;;;5152033;27;20483;-77
2023/08/11 03:08:27;;;;;;;8.25;5.60;;;;;;;;;;5151585;27;20147;-77
2023/08/11 03:10:53;;;;;;;7.28;4.80;;;;;;;;;;5152430;27;20439;-77
2023/08/11 03:13:20;;;;;;;7.35;4.57;;;;;;;;;;5151897;27;20495;-77
2023/08/11 03:15:46;;;;;;;9.10;6.70;;;;;;;;;;5151500;27;20046;-77
2023/08/11 03:18:12;;;;;;;7.97;5.05;;;;;;;;;;5152023;27;20093;-77
2023/08/11 03:20:38;;;;;;;4.95;2.72;;;;;;;;;;5151318;27;20167;-77
2023/08/11 03:23:04;;;;;;;7.20;2.88;;;;;;;;;;5152377;27;20042;-78
2023/08/11 03:25:31;;;;;;;9.90;7.18;;;;;;;;;;5152479;27;20956;-78
2023/08/11 03:27:57;;;;;;;7.05;4.03;;;;;;;;;;5152022;27;20384;-78
2023/08/11 03:30:23;;;;;;;9.38;6.10;;;;;;;;;;5153310;27;20506;-78
2023/08/11 03:32:49;;;;;;;10.77;7.05;;;;;;;;;;5152037;27;20026;-78
2023/08/11 03:35:17;;;;;;;11.15;5.68;;;;;;;;;;5150881;27;20034;-78
2023/08/11 03:37:43;;;;;;;13.55;8.40;;;;;;;;;;5151754;27;20042;-78
2023/08/11 03:40:12;;;;;;;13.63;7.72;;;;;;;;;;5151780;27;20042;-78
2023/08/11 03:42:42;;;;;;;7.47;5.35;;;;;;;;;;5152057;27;20025;-78
2023/08/11 03:45:11;;;;;;;8.50;6.07;;;;;;;;;;5150984;27;20015;-78
2023/08/11 03:47:37;;;;;;;12.83;6.40;;;;;;;;;;5151603;27;20018;-78
2023/08/11 03:50:04;;;;;;;9.90;4.53;;;;;;;;;;5151379;27;20102;-77
2023/08/11 03:52:30;;;;;;;8.95;5.63;;;;;;;;;;5151125;27;20080;-77
2023/08/11 03:54:56;;;;;;;8.80;5.68;;;;;;;;;;5150838;27;20018;-78
2023/08/11 03:57:22;;;;;;;5.82;3.13;;;;;;;;;;5150772;27;20361;-77
2023/08/11 03:59:48;;;;;;;11.48;7.35;;;;;;;;;;5151002;27;20029;-78
2023/08/11 04:02:14;;;;;;;7.82;3.85;;;;;;;;;;5150920;27;20392;-78
2023/08/11 04:04:40;;;;;;;9.00;6.03;;;;;;;;;;5150568;27;20029;-78
2023/08/11 04:07:06;;;;;;;9.95;5.70;;;;;;;;;;5151676;27;20044;-78
2023/08/11 04:09:34;;;;;;;9.80;5.57;;;;;;;;;;5151891;27;20030;-78
2023/08/11 04:12:00;;;;;;;8.35;5.25;;;;;;;;;;5150719;27;20099;-78
2023/08/11 04:14:25;;;;;;;12.75;7.50;;;;;;;;;;5151158;27;20458;-78
2023/08/11 04:16:51;;;;;;;6.97;4.63;;;;;;;;;;5151077;27;20109;-78
2023/08/11 04:19:17;;;;;;;8.80;6.35;;;;;;;;;;5153146;27;20071;-77
2023/08/11 04:21:43;;;;;;;11.20;7.78;;;;;;;;;;5151240;27;20038;-78
2023/08/11 04:24:09;;;;;;;8.07;5.93;;;;;;;;;;5151006;27;20023;-78
2023/08/11 04:26:35;;;;;;;11.65;7.13;;;;;;;;;;5151095;27;20485;-78
2023/08/11 04:29:01;;;;;;;11.23;7.32;;;;;;;;;;5149934;27;20018;-78
2023/08/11 04:31:28;;;;;;;8.48;5.60;;;;;;;;;;5150636;27;20037;-78
2023/08/11 04:33:54;;;;;;;8.80;4.97;;;;;;;;;;5150419;27;20184;-77
2023/08/11 04:36:20;;;;;;;10.77;6.72;;;;;;;;;;5150914;27;20484;-78
2023/08/11 04:38:46;;;;;;;8.63;5.72;;;;;;;;;;5151115;27;20046;-78
2023/08/11 04:41:12;;;;;;;11.13;7.95;;;;;;;;;;5150582;27;20030;-78
2023/08/11 04:43:38;;;;;;;11.23;7.78;;;;;;;;;;5151694;27;20034;-78
2023/08/11 04:46:04;;;;;;;9.43;6.30;;;;;;;;;;5150388;27;20027;-78
2023/08/11 04:48:30;;;;;;;9.60;6.70;;;;;;;;;;5148828;27;20045;-78
2023/08/11 04:50:56;;;;;;;12.88;8.45;;;;;;;;;;5150010;27;20086;-78
2023/08/11 04:53:23;;;;;;;9.10;6.38;;;;;;;;;;5150338;27;20026;-78
2023/08/11 04:55:49;;;;;;;9.35;6.10;;;;;;;;;;5150516;27;20019;-78
2023/08/11 04:58:15;;;;;;;10.55;6.63;;;;;;;;;;5150791;27;20026;-78
2023/08/11 05:00:41;;;;;;;8.90;6.15;;;;;;;;;;5150850;27;20031;-78
2023/08/11 05:03:07;;;;;;;8.52;6.10;;;;;;;;;;5151510;27;20031;-78
2023/08/11 05:05:34;;;;;;;9.27;4.95;;;;;;;;;;5154789;27;20118;-78
2023/08/11 05:08:00;;;;;;;10.73;7.55;;;;;;;;;;5156526;27;20031;-78
2023/08/11 05:10:26;;;;;;;7.43;5.30;;;;;;;;;;5151082;27;20102;-78
2023/08/11 05:12:52;;;;;;;9.57;6.15;;;;;;;;;;5149120;27;20109;-78
2023/08/11 05:15:18;;;;;;;8.95;5.97;;;;;;;;;;5149395;27;20023;-77
2023/08/11 05:17:45;;;;;;;11.57;8.07;;;;;;;;;;5150224;27;20023;-78
2023/08/11 05:20:11;;;;;;;5.68;3.35;;;;;;;;;;5148850;27;20412;-79
2023/08/11 05:22:37;;;;;;;10.30;6.60;;;;;;;;;;5149856;27;20027;-77
2023/08/11 05:25:04;;;;;;;13.75;8.93;;;;;;;;;;5151971;27;20023;-77
2023/08/11 05:27:30;;;;;;;7.03;5.07;;;;;;;;;;5154321;27;20033;-78
2023/08/11 05:29:56;;;;;;;11.27;8.00;;;;;;;;;;5153849;27;20023;-78
2023/08/11 05:32:23;;;;;;;12.57;7.22;;;;;;;;;;5153943;27;20033;-78
2023/08/11 05:34:50;;;;;;;8.23;4.32;;;;;;;;;;5154167;27;20380;-76
2023/08/11 05:37:16;;;;;;;10.02;6.07;;;;;;;;;;5153039;27;20761;-77
2023/08/11 05:39:44;;;;;;;12.25;7.07;;;;;;;;;;5153633;27;20825;-76
2023/08/11 05:42:10;;;;;;;18.00;6.65;;;;;;;;;;5153592;27;20035;-76
2023/08/11 05:44:37;;;;;;;10.90;8.30;;;;;;;;;;5153867;27;20039;-77
2023/08/11 05:47:04;;;;;;;12.05;7.50;;;;;;;;;;5153495;27;20026;-78
2023/08/11 05:49:30;;;;;;;11.75;8.80;;;;;;;;;;5154083;27;20023;-79
2023/08/11 05:51:56;;;;;;;8.25;4.95;;;;;;;;;;5153762;27;20080;-76
2023/08/11 05:54:22;;;;;;;12.18;7.63;;;;;;;;;;5154210;27;20023;-77
2023/08/11 05:56:48;;;;;;;13.65;7.75;;;;;;;;;;5155476;27;20023;-76
2023/08/11 05:59:14;;;;;;;13.95;10.02;;;;;;;;;;5152250;27;20051;-77
2023/08/11 06:01:40;;;;;;;15.02;10.60;;;;;;;;;;5153061;27;20034;-76
2023/08/11 06:04:06;;;;;;;10.38;6.90;;;;;;;;;;5150871;27;20194;-77
2023/08/11 06:06:32;;;;;;;11.13;7.72;;;;;;;;;;5152793;27;20030;-77
2023/08/11 06:08:59;;;;;;;14.75;10.35;;;;;;;;;;5152849;27;20022;-77
2023/08/11 06:11:25;;;;;;;11.77;7.95;;;;;;;;;;5151650;27;20561;-77
2023/08/11 06:13:51;;;;;;;12.50;8.88;;;;;;;;;;5152681;27;20082;-77
2023/08/11 06:16:17;;;;;;;15.00;10.55;;;;;;;;;;5152554;27;20508;-73
2023/08/11 06:18:44;;;;;;;9.90;6.75;;;;;;;;;;5153223;27;20022;-74
2023/08/11 06:21:10;;;;;;;9.38;5.85;;;;;;;;;;5152214;27;20110;-75
2023/08/11 06:23:37;;;;;;;10.30;5.38;;;;;;;;;;5152593;27;20029;-77
2023/08/11 06:26:03;;;;;;;8.02;5.20;;;;;;;;;;5151677;27;20027;-75
2023/08/11 06:28:29;;;;;;;6.20;4.13;;;;;;;;;;5152542;27;20085;-76
2023/08/11 06:30:55;;;;;;;7.95;3.88;;;;;;;;;;5153234;27;20025;-75
2023/08/11 06:33:21;;;;;;;8.52;5.07;;;;;;;;;;5152280;27;20461;-75
2023/08/11 06:35:47;;;;;;;9.77;5.05;;;;;;;;;;5151988;27;20019;-76
2023/08/11 06:38:13;;;;;;;9.45;5.28;;;;;;;;;;5152302;27;20375;-75
2023/08/11 06:40:39;;;;;;;7.80;5.20;;;;;;;;;;5153105;27;20051;-76
2023/08/11 06:43:06;;;;;;;9.02;5.40;;;;;;;;;;5154177;27;20426;-75
2023/08/11 06:45:32;;;;;;;8.57;4.63;;;;;;;;;;5152885;27;20022;-76
2023/08/11 06:47:58;;;;;;;9.02;5.88;;;;;;;;;;5152251;27;20026;-76
2023/08/11 06:50:25;;;;;;;7.45;3.90;;;;;;;;;;5151786;27;20027;-75
2023/08/11 06:52:51;;;;;;;6.63;4.10;;;;;;;;;;5152036;27;20110;-76
2023/08/11 06:55:17;;;;;;;7.35;4.28;;;;;;;;;;5152053;27;20023;-75
2023/08/11 06:57:43;;;;;;;8.60;5.05;;;;;;;;;;5152107;27;20030;-75
2023/08/11 07:00:09;;;;;;;8.05;4.32;;;;;;;;;;5152105;27;20038;-75
2023/08/11 07:02:35;;;;;;;6.78;4.30;;;;;;;;;;5151975;27;20129;-77
2023/08/11 07:05:02;;;;;;;10.48;5.05;;;;;;;;;;5151981;27;20023;-75
2023/08/11 07:07:28;;;;;;;7.35;4.00;;;;;;;;;;5152152;27;20019;-75
2023/08/11 07:09:54;;;;;;;8.73;4.93;;;;;;;;;;5151569;27;20386;-75
2023/08/11 07:12:20;;;;;;;7.35;3.53;;;;;;;;;;5151638;27;20151;-76
2023/08/11 07:14:46;;;;;;;6.32;4.15;;;;;;;;;;5151573;27;20072;-75
2023/08/11 07:17:12;;;;;;;8.32;4.50;;;;;;;;;;5150983;27;20109;-77
2023/08/11 07:19:39;;;;;;;7.93;5.10;;;;;;;;;;5150222;27;20050;-77
2023/08/11 07:22:05;;;;;;;6.53;3.85;;;;;;;;;;5148310;27;20053;-74
2023/08/11 07:24:31;;;;;;;6.95;3.22;;;;;;;;;;5150529;27;20030;-73
2023/08/11 07:26:57;;;;;;;10.65;3.63;;;;;;;;;;5149829;27;20034;-75
2023/08/11 07:29:23;;;;;;;7.97;3.60;;;;;;;;;;5149339;27;20044;-74
2023/08/11 07:31:49;;;;;;;7.03;4.07;;;;;;;;;;5150948;27;20018;-74
2023/08/11 07:34:15;;;;;;;7.72;4.15;;;;;;;;;;5152375;27;20026;-74
2023/08/11 07:36:43;;;;;;;6.72;3.78;;;;;;;;;;5151827;27;20019;-75
2023/08/11 07:39:09;;;;;;;5.53;3.00;;;;;;;;;;5150106;27;20096;-75
2023/08/11 07:41:36;;;;;;;7.28;3.72;;;;;;;;;;5150927;27;20026;-74
2023/08/11 07:44:04;;;;;;;7.65;3.60;;;;;;;;;;5150908;27;20095;-75
2023/08/11 07:46:30;;;;;;;7.20;4.45;;;;;;;;;;5150193;27;20102;-75
2023/08/11 07:48:56;;;;;;;8.98;4.60;;;;;;;;;;5149854;27;20034;-76
2023/08/11 07:51:22;;;;;;;8.57;4.72;;;;;;;;;;5149893;27;20792;-74
2023/08/11 07:53:49;;;;;;;9.30;4.53;;;;;;;;;;5149885;27;20050;-75
2023/08/11 07:56:16;;;;;;;5.50;3.63;;;;;;;;;;5148761;27;20787;-75
2023/08/11 07:58:42;;;;;;;7.75;4.00;;;;;;;;;;5149840;27;20019;-73
2023/08/11 08:01:08;;;;;;;11.55;5.20;;;;;;;;;;5149633;27;20074;-72
2023/08/11 08:03:38;;;;;;;8.43;4.25;;;;;;;;;;5148664;27;20033;-73
2023/08/11 08:06:04;;;;;;;6.20;4.13;;;;;;;;;;5148662;27;20396;-72
2023/08/11 08:08:32;;;;;;;8.23;4.05;;;;;;;;;;5150400;27;20052;-72
2023/08/11 08:10:58;;;;;;;7.10;3.63;;;;;;;;;;5150278;27;20031;-73
2023/08/11 08:13:24;;;;;;;7.28;4.25;;;;;;;;;;5151258;27;20026;-71
2023/08/11 08:15:50;;;;;;;6.95;3.92;;;;;;;;;;5150489;27;20023;-72
2023/08/11 08:18:16;;;;;;;9.50;3.72;;;;;;;;;;5150612;27;20018;-72
2023/08/11 08:20:42;;;;;;;7.00;3.63;;;;;;;;;;5150640;27;20030;-72
2023/08/11 08:23:08;;;;;;;9.40;4.50;;;;;;;;;;5150624;27;20042;-72
2023/08/11 08:25:34;;;;;;;7.53;3.92;;;;;;;;;;5150794;27;20341;-71
2023/08/11 08:28:00;;;;;;;7.03;3.67;;;;;;;;;;5149911;27;20075;-73
2023/08/11 08:30:26;;;;;;;8.10;4.07;;;;;;;;;;5150398;27;20027;-72
2023/08/11 08:32:52;;;;;;;7.38;3.97;;;;;;;;;;5149836;27;20023;-71
2023/08/11 08:35:19;;;;;;;11.13;4.82;;;;;;;;;;5150354;27;20026;-75
2023/08/11 08:37:45;;;;;;;10.23;6.05;;;;;;;;;;5150341;27;20488;-74
2023/08/11 08:40:12;;;;;;;11.45;6.88;;;;;;;;;;5150182;27;20125;-77
2023/08/11 08:42:38;;;;;;;11.63;6.88;;;;;;;;;;5149216;27;20027;-76
2023/08/11 08:45:05;;;;;;;10.55;6.38;;;;;;;;;;5149132;27;20370;-75
2023/08/11 08:47:32;;;;;;;6.80;4.05;;;;;;;;;;5150276;27;20027;-75
2023/08/11 08:49:58;;;;;;;11.05;5.38;;;;;;;;;;5150099;27;20712;-75
2023/08/11 08:52:25;;;;;;;11.70;6.38;;;;;;;;;;5150506;27;20023;-77
2023/08/11 08:54:51;;;;;;;7.47;3.85;;;;;;;;;;5149482;27;20392;-76
2023/08/11 08:57:20;;;;;;;10.52;6.60;;;;;;;;;;5152557;27;20055;-79
2023/08/11 08:59:46;;;;;;;7.18;4.35;;;;;;;;;;5156206;27;20019;-76
2023/08/11 09:02:13;;;;;;;8.93;5.03;;;;;;;;;;5156324;27;20463;-79
2023/08/11 09:04:40;;;;;;;12.15;6.38;;;;;;;;;;5155530;27;20023;-78
2023/08/11 09:07:06;;;;;;;8.40;3.72;;;;;;;;;;5157485;27;20057;-80
2023/08/11 09:09:32;;;;;;;5.60;2.95;;;;;;;;;;5162764;27;20097;-79
2023/08/11 09:12:00;;;;;;;7.10;3.88;;;;;;;;;;5156981;27;20023;-79
2023/08/11 09:14:27;;;;;;;8.38;4.75;;;;;;;;;;5156768;27;20369;-79
2023/08/11 09:16:53;;;;;;;10.15;5.03;;;;;;;;;;5155916;27;20094;-77
2023/08/11 09:19:20;;;;;;;9.02;4.20;;;;;;;;;;5154798;27;20041;-77
2023/08/11 09:21:49;;;;;;;8.40;4.07;;;;;;;;;;5155110;27;20046;-77
2023/08/11 09:24:15;;;;;;;7.70;3.80;;;;;;;;;;5155200;27;20038;-77
2023/08/11 09:26:45;;;;;;;9.13;4.82;;;;;;;;;;5154347;27;20439;-78
2023/08/11 09:29:12;;;;;;;7.95;3.95;;;;;;;;;;5153326;27;20109;-78
2023/08/11 09:31:39;;;;;;;9.18;4.43;;;;;;;;;;5154373;27;20401;-78
2023/08/11 09:34:16;;;;;;;7.68;3.05;;;;;;;;;;5154168;27;20109;-78
2023/08/11 09:36:42;;;;;;;9.27;3.53;;;;;;;;;;5155813;27;20068;-79
2023/08/11 09:39:09;;;;;;;9.57;4.18;;;;;;;;;;5153255;27;20547;-75
2023/08/11 09:41:53;;;;;;;6.18;2.85;;;;;;;;;;5154501;27;20027;-76
2023/08/11 09:44:19;;;;;;;6.50;3.05;;;;;;;;;;5154177;27;20054;-76
2023/08/11 09:46:47;;;;;;;7.45;3.55;;;;;;;;;;5154325;27;20070;-78
2023/08/11 09:49:13;;;;;;;8.07;4.03;;;;;;;;;;5152452;27;20202;-76
2023/08/11 09:51:40;;;;;;;7.97;2.88;;;;;;;;;;5153904;27;20033;-75
2023/08/11 09:54:09;;;;;;;6.78;2.60;;;;;;;;;;5154052;27;20026;-76
2023/08/11 09:56:36;;;;;;;6.22;3.22;;;;;;;;;;5156425;27;20034;-76
2023/08/11 09:59:06;;;;;;;5.68;3.13;;;;;;;;;;5153980;27;20449;-76
2023/08/11 10:01:36;;;;;;;6.00;2.70;;;;;;;;;;5153916;27;20034;-75
2023/08/11 10:04:10;;;;;;;6.78;3.28;;;;;;;;;;5151752;27;20126;-75
2023/08/11 10:06:49;;;;;;;7.95;3.20;;;;;;;;;;5153254;27;20502;-74
2023/08/11 10:09:16;;;;;;;5.60;2.58;;;;;;;;;;5151903;27;20476;-76
2023/08/11 10:11:44;;;;;;;7.95;4.22;;;;;;;;;;5152735;27;20022;-77
2023/08/11 10:14:14;;;;;;;6.50;2.67;;;;;;;;;;5154164;27;20440;-77
2023/08/11 10:16:41;;;;;;;5.72;2.70;;;;;;;;;;5153835;27;20033;-76
2023/08/11 10:19:07;;;;;;;7.47;3.50;;;;;;;;;;5152815;27;20058;-78
2023/08/11 10:21:34;;;;;;;5.90;2.92;;;;;;;;;;5151993;27;20844;-75
2023/08/11 10:24:00;;;;;;;6.45;3.20;;;;;;;;;;5153201;27;20495;-78
2023/08/11 10:26:29;;;;;;;13.38;4.05;;;;;;;;;;5152158;27;20054;-76
2023/08/11 10:28:55;;;;;;;8.75;3.90;;;;;;;;;;5152446;27;20023;-79
2023/08/11 10:31:26;;;;;;;7.75;3.08;;;;;;;;;;5152977;27;20026;-80
2023/08/11 10:33:53;;;;;;;5.85;3.15;;;;;;;;;;5153360;27;20056;-81
2023/08/11 10:36:24;;;;;;;8.98;3.20;;;;;;;;;;5154485;27;20030;-79
2023/08/11 10:39:00;;;;;;;8.05;3.83;;;;;;;;;;5153448;27;20085;-80
2023/08/11 10:41:27;;;;;;;5.65;2.70;;;;;;;;;;5153630;27;20023;-80
2023/08/11 10:43:54;;;;;;;12.13;4.30;;;;;;;;;;5157377;27;20026;-80
2023/08/11 10:46:28;;;;;;;6.05;2.70;;;;;;;;;;5154219;27;20051;-79
2023/08/11 10:48:55;;;;;;;8.18;4.38;;;;;;;;;;5153180;27;20023;-80
2023/08/11 10:51:23;;;;;;;5.05;3.05;;;;;;;;;;5153714;27;20030;-80
2023/08/11 10:53:49;;;;;;;6.22;2.75;;;;;;;;;;5153728;27;20023;-79
2023/08/11 10:56:15;;;;;;;10.93;3.78;;;;;;;;;;5156144;27;20042;-79
2023/08/11 10:58:44;;;;;;;5.75;2.58;;;;;;;;;;5152390;27;20065;-79
2023/08/11 11:01:10;;;;;;;9.32;3.20;;;;;;;;;;5152599;27;20345;-80
2023/08/11 11:03:36;;;;;;;8.75;4.25;;;;;;;;;;5155351;27;20048;-78
2023/08/11 11:06:07;;;;;;;7.30;3.13;;;;;;;;;;5158552;27;20485;-80
2023/08/11 11:08:33;;;;;;;5.93;3.03;;;;;;;;;;5158083;27;20022;-80
2023/08/11 11:11:00;;;;;;;7.82;3.70;;;;;;;;;;5159558;27;20030;-81
2023/08/11 11:13:26;;;;;;;4.68;2.72;;;;;;;;;;5152926;27;20027;-80
2023/08/11 11:15:52;;;;;;;7.35;3.35;;;;;;;;;;5155041;27;20022;-79
2023/08/11 11:18:18;;;;;;;4.28;1.98;;;;;;;;;;5154084;27;20042;-79
2023/08/11 11:20:45;;;;;;;4.93;2.42;;;;;;;;;;5154949;27;20030;-80
2023/08/11 11:23:11;;;;;;;4.10;2.30;;;;;;;;;;5152917;27;20065;-81
2023/08/11 11:25:37;;;;;;;5.47;2.05;;;;;;;;;;5152585;27;20033;-80
2023/08/11 11:28:04;;;;;;;6.38;2.30;;;;;;;;;;5153483;27;20054;-79
2023/08/11 11:30:30;;;;;;;4.20;2.00;;;;;;;;;;5156853;27;20026;-79
2023/08/11 11:32:58;;;;;;;6.07;3.15;;;;;;;;;;5155938;27;20577;-79
2023/08/11 11:35:24;;;;;;;6.45;2.17;;;;;;;;;;5153841;27;20555;-78
2023/08/11 11:37:51;;;;;;;6.10;2.50;;;;;;;;;;5152562;27;20147;-80
2023/08/11 11:40:17;;;;;;;6.35;2.40;;;;;;;;;;5153817;27;20470;-79
2023/08/11 11:42:43;;;;;;;5.95;2.20;;;;;;;;;;5152252;27;20035;-80
2023/08/11 11:45:10;;;;;;;6.45;2.50;;;;;;;;;;5152208;27;20053;-78
2023/08/11 11:47:36;;;;;;;5.50;2.10;;;;;;;;;;5152132;27;20384;-79
2023/08/11 11:50:06;;;;;;;6.10;2.60;;;;;;;;;;5150727;27;20536;-78
2023/08/11 11:52:32;;;;;;;6.43;2.20;;;;;;;;;;5152060;27;20025;-79
2023/08/11 11:54:58;;;;;;;4.20;2.20;;;;;;;;;;5152387;27;20094;-80
2023/08/11 11:57:24;;;;;;;5.82;2.25;;;;;;;;;;5151944;27;20105;-80
2023/08/11 11:59:51;;;;;;;5.88;2.40;;;;;;;;;;5152874;27;20123;-81
2023/08/11 12:02:17;;;;;;;7.43;2.88;;;;;;;;;;5154017;27;20038;-79
2023/08/11 12:04:44;;;;;;;5.85;2.38;;;;;;;;;;5156904;27;20128;-81
2023/08/11 12:07:10;;;;;;;4.60;2.30;;;;;;;;;;5154392;27;20027;-80
2023/08/11 12:09:52;;;;;;;4.88;2.55;;;;;;;;;;5159764;27;20027;-80
2023/08/11 12:12:18;;;;;;;3.70;2.28;;;;;;;;;;5158066;27;20370;-79
2023/08/11 12:14:44;;;;;;;4.20;2.28;;;;;;;;;;5153195;27;20464;-77
2023/08/11 12:17:10;;;;;;;7.55;2.47;;;;;;;;;;5156480;27;20072;-80
2023/08/11 12:19:36;;;;;;;4.22;1.67;;;;;;;;;;5154579;27;20031;-79
2023/08/11 12:22:03;;;;;;;6.13;2.80;;;;;;;;;;5156506;27;20018;-78
2023/08/11 12:24:29;;;;;;;4.50;2.03;;;;;;;;;;5155118;27;20058;-79
2023/08/11 12:26:55;;;;;;;5.50;2.30;;;;;;;;;;5151800;27;20023;-77
2023/08/11 12:29:21;;;;;;;4.50;2.00;;;;;;;;;;5151096;27;20025;-79
2023/08/11 12:31:49;;;;;;;6.53;2.78;;;;;;;;;;5153979;27;20023;-80
2023/08/11 12:34:15;;;;;;;5.60;2.35;;;;;;;;;;5152911;27;20029;-79
2023/08/11 12:36:41;;;;;;;5.95;3.03;;;;;;;;;;5154681;27;20050;-79
2023/08/11 12:39:07;;;;;;;3.45;2.10;;;;;;;;;;5153468;27;20050;-81
2023/08/11 12:41:33;;;;;;;4.50;2.17;;;;;;;;;;5153063;27;20038;-78
2023/08/11 12:44:00;;;;;;;7.13;2.53;;;;;;;;;;5154746;27;20015;-79
2023/08/11 12:46:26;;;;;;;4.47;2.53;;;;;;;;;;5153400;27;20030;-80
2023/08/11 12:48:52;;;;;;;4.88;2.17;;;;;;;;;;5153460;27;20027;-79
2023/08/11 12:51:18;;;;;;;4.57;2.25;;;;;;;;;;5153024;27;20057;-78
2023/08/11 12:53:44;;;;;;;3.92;1.98;;;;;;;;;;5152138;27;20037;-78
2023/08/11 12:56:10;;;;;;;4.20;1.65;;;;;;;;;;5153537;27;20022;-78
2023/08/11 12:58:36;;;;;;;5.95;2.13;;;;;;;;;;5152572;27;20026;-78
2023/08/11 13:01:06;;;;;;;5.72;2.08;;;;;;;;;;5150082;27;20050;-80
2023/08/11 13:03:32;;;;;;;;;;;;;;;;;;5152761;27;20031;-81
2023/08/11 13:06:00;;;;;;;3.83;1.85;;;;;;;;;;5160453;27;19955;-80
2023/08/11 13:08:26;;;;;;;5.97;2.08;;;;;;;;;;5155832;27;20079;-79
2023/08/11 13:10:52;;;;;;;4.43;1.92;;;;;;;;;;5152874;27;20027;-79
2023/08/11 13:13:19;;;;;;;4.13;2.00;;;;;;;;;;5152299;27;20336;-80
2023/08/11 13:15:47;;;;;;;4.53;2.00;;;;;;;;;;5152012;27;20026;-78
2023/08/11 13:18:13;;;;;;;7.03;1.95;;;;;;;;;;5151500;27;20034;-78
2023/08/11 13:20:39;;;;;;;3.97;2.13;;;;;;;;;;5151431;27;20459;-79
2023/08/11 13:23:05;;;;;;;6.15;2.47;;;;;;;;;;5150766;27;20056;-79
2023/08/11 13:25:31;;;;;;;5.47;2.10;;;;;;;;;;5151440;27;20015;-79
2023/08/11 13:28:00;;;;;;;4.97;2.45;;;;;;;;;;5150561;27;20049;-80
2023/08/11 13:30:30;;;;;;;4.60;1.98;;;;;;;;;;5149862;27;20056;-78
2023/08/11 13:32:56;;;;;;;6.65;2.13;;;;;;;;;;5149065;27;20073;-80
2023/08/11 13:35:22;;;;;;;3.03;1.70;;;;;;;;;;5151593;27;20054;-75
2023/08/11 13:37:48;;;;;;;4.03;2.13;;;;;;;;;;5150494;27;20511;-74
2023/08/11 13:40:15;;;;;;;3.38;1.58;;;;;;;;;;5148554;27;20408;-73
2023/08/11 13:42:41;;;;;;;4.45;1.73;;;;;;;;;;5150259;27;20079;-75
2023/08/11 13:45:07;;;;;;;4.53;1.45;;;;;;;;;;5150225;27;20075;-74
2023/08/11 13:47:33;;;;;;;4.60;1.95;;;;;;;;;;5151592;27;20269;-75
2023/08/11 13:49:59;;;;;;;4.53;1.98;;;;;;;;;;5151317;27;20429;-75
2023/08/11 13:52:25;;;;;;;4.32;1.70;;;;;;;;;;5153504;27;20030;-73
2023/08/11 13:55:02;;;;;;;4.20;1.77;;;;;;;;;;5153840;27;20026;-74
2023/08/11 13:57:28;;;;;;;6.80;2.85;;;;;;;;;;5151343;27;20109;-74
2023/08/11 13:59:58;;;;;;;3.65;1.67;;;;;;;;;;5149229;27;20139;-75
2023/08/11 14:02:25;;;;;;;3.55;1.83;;;;;;;;;;5150765;27;20121;-75
2023/08/11 14:04:51;;;;;;;3.88;1.50;;;;;;;;;;5150725;27;20029;-74
2023/08/11 14:07:17;;;;;;;3.20;1.60;;;;;;;;;;5150278;27;20412;-76
2023/08/11 14:09:43;;;;;;;3.03;1.55;;;;;;;;;;5150463;27;20019;-76
2023/08/11 14:12:09;;;;;;;2.45;1.40;;;;;;;;;;5151139;27;20029;-74
2023/08/11 14:14:36;;;;;;;3.40;1.40;;;;;;;;;;5152886;27;20101;-75
2023/08/11 14:17:02;;;;;;;3.13;1.60;;;;;;;;;;5152658;27;20047;-76
2023/08/11 14:19:28;;;;;;;3.05;1.70;;;;;;;;;;5152844;27;20054;-74
2023/08/11 14:21:54;;;;;;;2.97;1.25;;;;;;;;;;5152656;27;20511;-74
2023/08/11 14:24:20;;;;;;;3.72;1.77;;;;;;;;;;5151397;27;20026;-74
2023/08/11 14:26:46;;;;;;;4.13;1.80;;;;;;;;;;5153054;27;20031;-74
2023/08/11 14:29:12;;;;;;;3.60;1.60;;;;;;;;;;5152874;27;20022;-75
2023/08/11 14:31:38;;;;;;;5.50;1.73;;;;;;;;;;5151467;27;20150;-76
2023/08/11 14:34:04;;;;;;;3.42;1.60;;;;;;;;;;5153490;27;20051;-74
2023/08/11 14:36:30;;;;;;;3.67;1.33;;;;;;;;;;5153535;27;20421;-74
2023/08/11 14:38:56;;;;;;;4.80;1.90;;;;;;;;;;5152615;27;20388;-75